EW9058 Weather Reports


Display with metric or nautical units.
time (UTC)temp
F
wind
direction
speed
MPH
gust
MPH
rain 1hr
in
rain 24hr
in
rain mn
in
humidity
%
barometer
mb
20191023050016 87 189 4.0 11.0 0.00 0.00 0.00 77 1007.4
20191023043017 88 190 3.0 9.0 0.00 0.00 0.00 74 1007.8
20191023040016 87 189 2.0 8.0 0.00 0.00 0.00 74 1008.2
20191023033017 86 190 2.0 12.0 0.00 0.00 0.00 75 1008.5
20191023030016 85 189 3.0 12.0 0.00 0.00 0.00 75 1008.9
20191023023017 84 189 4.0 10.0 0.00 0.00 0.00 75 1009.3
20191023020016 84 189 4.0 9.0 0.00 0.00 0.00 77 1009.6
20191023013017 83 189 4.0 9.0 0.00 0.00 0.00 79 1009.9
20191023010019 84 189 4.0 11.0 0.00 0.00 0.00 79 1009.8
20191023003017 83 189 4.0 11.0 0.00 0.00 0.00 81 1009.6
20191023000017 83 190 0.0 6.0 0.00 0.00 0.00 81 1009.4
20191022233017 81 190 0.0 2.0 0.00 0.00 0.00 84 1009.2
20191022230017 76 0.0 0.0 0.00 0.00 0.00 93 1008.8
20191022223018 74 0.0 0.0 0.00 0.00 0.00 95 1008.3
20191022220016 73 0.0 0.0 0.00 0.00 0.00 96 1007.8
20191022213017 73 0.0 0.0 0.00 0.00 0.00 95 1007.5
20191022210017 73 0.0 0.0 0.00 0.00 0.00 95 1007.2
20191022203017 74 0.0 0.0 0.00 0.00 0.00 94 1007.0
20191022200017 74 0.0 0.0 0.00 0.00 0.00 94 1006.8
20191022193017 75 0.0 0.0 0.00 0.00 0.00 94 1006.9
20191022190017 75 0.0 0.0 0.00 0.01 0.00 94 1007.1
20191022183017 75 0.0 0.0 0.00 0.01 0.00 94 1007.3
20191022180017 76 0.0 0.0 0.00 0.01 0.00 93 1007.4
20191022173018 76 0.0 0.0 0.00 0.01 0.00 92 1007.6
20191022170017 77 0.0 0.0 0.00 0.01 0.00 92 1007.9
20191022163018 77 0.0 0.0 0.00 0.01 0.00 92 1008.1
20191022160017 77 0.0 0.0 0.00 0.01 0.00 92 1008.3
20191022153017 77 0.0 1.0 0.00 0.01 0.01 92 1008.3
20191022150018 78 190 0.0 1.0 0.00 0.01 0.01 91 1008.4
20191022143017 78 0.0 1.0 0.00 0.01 0.01 90 1008.5
20191022140016 79 190 0.0 3.0 0.00 0.01 0.01 90 1008.7
20191022133017 79 190 0.0 3.0 0.00 0.01 0.01 89 1008.8
20191022130016 79 190 0.0 3.0 0.00 0.01 0.01 89 1008.7
20191022123018 80 190 0.0 4.0 0.00 0.01 0.01 87 1008.6
20191022120016 81 190 1.0 8.0 0.00 0.01 0.01 85 1008.0
20191022113017 82 189 2.0 10.0 0.00 0.01 0.01 83 1007.5
20191022110018 82 189 4.0 11.0 0.00 0.01 0.01 81 1007.1
20191022103017 82 189 3.0 11.0 0.00 0.01 0.01 80 1006.5
20191022100017 83 189 3.0 13.0 0.00 0.01 0.01 77 1006.1
20191022093017 84 189 5.0 13.0 0.00 0.01 0.01 74 1005.8
20191022090017 86 189 5.0 14.0 0.00 0.01 0.01 73 1005.6
20191022083017 86 190 6.0 14.0 0.00 0.01 0.01 70 1005.4
20191022080017 87 190 6.0 14.0 0.00 0.01 0.01 65 1005.3
20191022073018 88 189 6.0 14.0 0.00 0.01 0.01 67 1005.1
20191022070016 88 190 7.0 14.0 0.00 0.01 0.01 67 1005.0
20191022063021 88 190 6.0 12.0 0.00 0.01 0.01 66 1005.5
20191022060016 88 190 6.0 13.0 0.00 0.01 0.01 66 1005.8
20191022053017 88 190 5.0 13.0 0.00 0.01 0.01 64 1006.3